Overview Statistics Trail Chart Weather Telemetry Raw packets
 

This is the latest recevied weather packets stored in our database for station/object IN3MWE-10. If no packets are shown the sender has not sent any weather packets the latest 10 day(s).

<< 27 28 29 30 31 32 33 >>
Time Temp. Humidity Pressure Rain* Wind** Luminosity Snow
1788022221 28.89° C 57% 976 hPa - - - -
1788021321 29.44° C 50% 975.9 hPa - - - -
1788020420 30° C 44% 975.7 hPa - - - -
1788019520 32.78° C 39% 975.5 hPa - - - -
1788018620 31.11° C 44% 975.5 hPa - - - -
1788017720 34.44° C 33% 975.5 hPa - - - -
1788016820 37.22° C 27% 975.6 hPa - - - -
1788015920 38.33° C 26% 975.6 hPa - - - -
1788015020 37.78° C 24% 975.6 hPa - - - -
1788014119 38.33° C 23% 975.6 hPa - - - -
1788013219 39.44° C 22% 975.6 hPa - - - -
1788012319 37.78° C 23% 975.8 hPa - - - -
1788011419 40° C 21% 976.1 hPa - - - -
1788010519 39.44° C 23% 976.2 hPa - - - -
1788009620 38.89° C 23% 976.4 hPa - - - -
1788008719 40° C 20% 976.5 hPa - - - -
1788007818 40° C 21% 976.8 hPa - - - -
1788006918 38.89° C 22% 977 hPa - - - -
1788006018 40.56° C 20% 977 hPa - - - -
1788005118 36.67° C 25% 977.2 hPa - - - -
1788004218 39.44° C 24% 977.3 hPa - - - -
1788003318 37.78° C 25% 977.4 hPa - - - -
1788002418 38.33° C 25% 977.6 hPa - - - -
1788001517 35.56° C 28% 978 hPa - - - -
1788000617 35° C 30% 978.1 hPa - - - -

* Rain since midnight (hover to see other rain measurements)
** Current wind speed in m/s (hover to see current wind gust speed)